Governor Curtis — WY4734 — position and weather

sailwx.info

Track history (hours):
 
Tides and Currents Weather Stations Pressure Air Temp Water Temp Dewpoint Dewpoint Depression Visibility Wind Speed Wind Dir Waves Ship Positions

Governor Curtis

Owner: MAINE STATE FERRY SERVICE, ROCKLAND, ME. More information available from US FCC via Universal Licensing System and Coast Guard Vessel Documentation Center.

Last reported at 2017-Dec-11 17:00 UTC. Time now 2017-Dec-11 19:15 UTC.
Position N 44°04' W 068°54'.

Type: Passenger vessel. MMSI: 367334910.

Date/timePositionNaut miles runAvg speedWind from/ knotsBaromVisibWave heightAir tempDewpointWater temp
2017-Dec-11 17:00N 44°04' W 068°54'611.2
2017-Dec-11 16:30N 44°06' W 069°02'4 7.1
2017-Dec-11 16:00N 44°06' W 069°06'0 0.0
2017-Dec-11 15:30N 44°06' W 069°06'2 3.2
2017-Dec-11 15:00N 44°06' W 069°04'510.8
2017-Dec-11 14:30N 44°05' W 068°57'510.1
2017-Dec-11 14:00N 44°02' W 068°51'1 1.0
2017-Dec-11 13:27N 44°03' W 068°50'2 4.0
2017-Dec-11 13:00N 44°03' W 068°53'611.2
2017-Dec-11 12:30N 44°06' W 068°60'5 9.7
2017-Dec-11 12:00N 44°06' W 069°06'0 0.0
2017-Dec-11 11:27N 44°06' W 069°06'0 0.0
2017-Dec-10 22:47N 44°06' W 069°06'2 7.9
2017-Dec-10 22:29N 44°06' W 069°03'610.8
2017-Dec-10 21:58N 44°05' W 068°56'4 4.3
2017-Dec-10 20:57N 44°02' W 068°50'510.3
2017-Dec-10 20:30N 44°05' W 068°56'611.4
2017-Dec-10 20:00N 44°06' W 069°04'2 3.3
2017-Dec-10 19:26N 44°06' W 069°06'0 0.0
2017-Dec-10 15:14N 44°06' W 069°06'0 0.5
2017-Dec-10 15:00N 44°06' W 069°06'510.2
2017-Dec-10 14:30N 44°06' W 068°59'510.4
2017-Dec-10 14:00N 44°03' W 068°53'2 3.1
2017-Dec-10 13:24N 44°03' W 068°50'2 4.3
2017-Dec-10 13:00N 44°03' W 068°53'611.5
2017-Dec-10 12:30N 44°06' W 068°60'5 9.5
2017-Dec-10 11:59N 44°06' W 069°06'0 0.0
2017-Dec-09 22:46N 44°06' W 069°06'2 9.1
2017-Dec-09 22:30N 44°06' W 069°03'510.7
2017-Dec-09 21:59N 44°05' W 068°56'4 4.3
2017-Dec-09 21:01N 44°02' W 068°51'011.7
2017-Dec-09 20:59N 44°03' W 068°51'511.0
2017-Dec-09 20:30N 44°05' W 068°58'611.1
2017-Dec-09 19:59N 44°06' W 069°05'1 1.5
2017-Dec-09 19:27N 44°06' W 069°06'0 0.1
2017-Dec-09 19:00N 44°06' W 069°06'0 0.0
2017-Dec-09 15:14N 44°06' W 069°06'0 1.2
2017-Dec-09 15:00N 44°06' W 069°06'510.8
2017-Dec-09 14:30N 44°05' W 068°59'611.0
2017-Dec-09 14:00N 44°03' W 068°52'1 1.4
2017-Dec-09 13:11N 44°02' W 068°50'2 9.4
2017-Dec-09 13:00N 44°03' W 068°53'611.2
2017-Dec-09 12:30N 44°06' W 068°60'5 8.6
2017-Dec-09 11:55N 44°06' W 069°06'0 0.0
2017-Dec-08 22:47N 44°06' W 069°06'3 8.8
2017-Dec-08 22:30N 44°06' W 069°03'510.6
2017-Dec-08 22:00N 44°05' W 068°56'4 3.7
2017-Dec-08 20:53N 44°02' W 068°51'411.5
2017-Dec-08 20:30N 44°05' W 068°56'611.6
2017-Dec-08 20:00N 44°06' W 069°04'2 2.7
2017-Dec-08 19:17N 44°06' W 069°06'2 7.6
2017-Dec-08 19:00N 44°06' W 069°03'611.0
2017-Dec-08 18:29N 44°05' W 068°56'5 2.6
2017-Dec-08 16:43N 44°02' W 068°50'2 9.7
2017-Dec-08 16:30N 44°03' W 068°53'510.5
2017-Dec-08 16:00N 44°05' W 068°60'5 9.6
2017-Dec-08 15:29N 44°06' W 069°06'0 0.7
2017-Dec-08 15:00N 44°06' W 069°06'510.5
2017-Dec-08 14:30N 44°06' W 068°59'610.9
2017-Dec-08 14:00N 44°03' W 068°52'1 1.7
2017-Dec-08 13:12N 44°02' W 068°50'2 9.3
2017-Dec-08 13:00N 44°03' W 068°53'611.0
2017-Dec-08 12:30N 44°06' W 068°60'5 8.1
2017-Dec-08 11:54N 44°06' W 069°06'0 0.1
2017-Dec-08 11:28N 44°06' W 069°06'0 0.0
2017-Dec-07 22:52N 44°06' W 069°06'3 7.5
2017-Dec-07 22:29N 44°06' W 069°03'510.5
2017-Dec-07 21:59N 44°05' W 068°56'4 3.8
2017-Dec-07 20:57N 44°02' W 068°51'511.5
2017-Dec-07 20:30N 44°05' W 068°57'611.5
2017-Dec-07 20:00N 44°06' W 069°05'1 2.1
2017-Dec-07 19:24N 44°06' W 069°06'2 6.1
2017-Dec-07 19:00N 44°06' W 069°03'510.7
2017-Dec-07 18:30N 44°05' W 068°56'4 2.5
2017-Dec-07 16:42N 44°02' W 068°51'210.5
2017-Dec-07 16:28N 44°04' W 068°53'510.8
2017-Dec-07 16:00N 44°06' W 068°60'5 5.0
2017-Dec-07 15:02N 44°06' W 069°06'0 1.2
2017-Dec-07 15:00N 44°06' W 069°06'5 9.8
2017-Dec-07 14:29N 44°06' W 068°60'511.1
2017-Dec-07 14:00N 44°03' W 068°53'2 2.5
2017-Dec-07 13:15N 44°03' W 068°50'2 8.0
2017-Dec-07 13:00N 44°03' W 068°53'510.8
2017-Dec-07 12:30N 44°06' W 068°60'5 8.4
2017-Dec-07 11:56N 44°06' W 069°06'0 0.0
2017-Dec-06 22:44N 44°06' W 069°06'2 7.6
2017-Dec-06 22:30N 44°06' W 069°04'611.1
2017-Dec-06 22:00N 44°05' W 068°56'5 4.7
2017-Dec-06 20:56N 44°03' W 068°50'  
2017-Dec-03 22:42N 44°06' W 069°06'2 8.6
2017-Dec-03 22:30N 44°06' W 069°04'610.6
2017-Dec-03 21:58N 44°05' W 068°56'4 3.0
2017-Dec-03 20:48N 44°03' W 068°52'310.3
2017-Dec-03 20:30N 44°05' W 068°56'611.3
2017-Dec-03 20:00N 44°06' W 069°04'2 3.0
2017-Dec-03 19:16N 44°06' W 069°06'2 7.5
2017-Dec-03 19:00N 44°06' W 069°04'611.0
2017-Dec-03 18:29N 44°05' W 068°56'5 2.5
2017-Dec-03 16:37N 44°02' W 068°51'111.1
2017-Dec-03 16:30N 44°03' W 068°52'611.4
2017-Dec-03 16:01N 44°05' W 068°59'5 7.9
2017-Dec-03 15:21N 44°06' W 069°06'0 0.1
2017-Dec-03 15:00N 44°06' W 069°06'5 9.6
2017-Dec-03 14:30N 44°06' W 069°00'510.8
2017-Dec-03 14:00N 44°04' W 068°53'2 2.8
2017-Dec-03 13:14N 44°02' W 068°50'2 9.9
2017-Dec-03 13:00N 44°04' W 068°53'510.5
2017-Dec-03 12:30N 44°06' W 068°60'5 9.4
2017-Dec-03 12:00N 44°06' W 069°06'0 0.1
2017-Dec-03 11:30N 44°06' W 069°06'0 0.0
2017-Dec-02 22:42N 44°06' W 069°06'1 7.2
2017-Dec-02 22:29N 44°06' W 069°05'611.4
2017-Dec-02 22:00N 44°05' W 068°57'4 4.0
2017-Dec-02 20:54N 44°03' W 068°52'410.3
2017-Dec-02 20:29N 44°05' W 068°57'611.3
2017-Dec-02 19:58N 44°06' W 069°04'1 2.0
2017-Dec-02 19:14N 44°06' W 069°06'2 7.5
2017-Dec-02 18:59N 44°06' W 069°04'511.2
2017-Dec-02 18:30N 44°05' W 068°56'2 0.7
2017-Dec-02 16:20N 44°04' W 068°55'411.7
2017-Dec-02 16:01N 44°05' W 068°59'5 4.8
2017-Dec-02 14:58N 44°06' W 069°06'510.1
2017-Dec-02 14:30N 44°06' W 068°60'610.9
2017-Dec-02 13:59N 44°03' W 068°53'1 1.1
2017-Dec-02 13:10N 44°03' W 068°52'210.8
2017-Dec-02 12:57N 44°04' W 068°54'510.8
2017-Dec-02 12:30N 44°06' W 069°00'4 8.8
2017-Dec-02 12:00N 44°06' W 069°06'0 0.1
2017-Dec-02 11:30N 44°06' W 069°06'0 0.0
2017-Dec-01 22:40N 44°06' W 069°06'1 8.4
2017-Dec-01 22:30N 44°06' W 069°05'611.3
2017-Dec-01 21:57N 44°05' W 068°56'3 2.9
2017-Dec-01 20:49N 44°03' W 068°52'310.7
2017-Dec-01 20:30N 44°05' W 068°56'611.2
2017-Dec-01 19:59N 44°06' W 069°04'1 1.8
2017-Dec-01 19:11N 44°06' W 069°06'210.2
2017-Dec-01 19:00N 44°06' W 069°04'610.7
2017-Dec-01 18:24N 44°04' W 068°55'  
Track history (hours):
 
Tides and Currents Weather Stations Pressure Air Temp Water Temp Dewpoint Dewpoint Depression Visibility Wind Speed Wind Dir Waves Ship Positions

Governor Curtis

Owner: MAINE STATE FERRY SERVICE, ROCKLAND, ME. More information available from US FCC via Universal Licensing System and Coast Guard Vessel Documentation Center.

Last reported at 2017-Dec-11 17:00 UTC. Time now 2017-Dec-11 19:15 UTC.
Position N 44°04' W 068°54'.

Type: Passenger vessel. MMSI: 367334910.

Date/timePositionNaut miles runAvg speedWind from/ knotsBaromVisibWave heightAir tempDewpointWater temp
2017-Dec-11 17:00N 44°04' W 068°54'611.2
2017-Dec-11 16:30N 44°06' W 069°02'4 7.1
2017-Dec-11 16:00N 44°06' W 069°06'0 0.0
2017-Dec-11 15:30N 44°06' W 069°06'2 3.2
2017-Dec-11 15:00N 44°06' W 069°04'510.8
2017-Dec-11 14:30N 44°05' W 068°57'510.1
2017-Dec-11 14:00N 44°02' W 068°51'1 1.0
2017-Dec-11 13:27N 44°03' W 068°50'2 4.0
2017-Dec-11 13:00N 44°03' W 068°53'611.2
2017-Dec-11 12:30N 44°06' W 068°60'5 9.7
2017-Dec-11 12:00N 44°06' W 069°06'0 0.0
2017-Dec-11 11:27N 44°06' W 069°06'0 0.0
2017-Dec-10 22:47N 44°06' W 069°06'2 7.9
2017-Dec-10 22:29N 44°06' W 069°03'610.8
2017-Dec-10 21:58N 44°05' W 068°56'4 4.3
2017-Dec-10 20:57N 44°02' W 068°50'510.3
2017-Dec-10 20:30N 44°05' W 068°56'611.4
2017-Dec-10 20:00N 44°06' W 069°04'2 3.3
2017-Dec-10 19:26N 44°06' W 069°06'0 0.0
2017-Dec-10 15:14N 44°06' W 069°06'0 0.5
2017-Dec-10 15:00N 44°06' W 069°06'510.2
2017-Dec-10 14:30N 44°06' W 068°59'510.4
2017-Dec-10 14:00N 44°03' W 068°53'2 3.1
2017-Dec-10 13:24N 44°03' W 068°50'2 4.3
2017-Dec-10 13:00N 44°03' W 068°53'611.5
2017-Dec-10 12:30N 44°06' W 068°60'5 9.5
2017-Dec-10 11:59N 44°06' W 069°06'0 0.0
2017-Dec-09 22:46N 44°06' W 069°06'2 9.1
2017-Dec-09 22:30N 44°06' W 069°03'510.7
2017-Dec-09 21:59N 44°05' W 068°56'4 4.3
2017-Dec-09 21:01N 44°02' W 068°51'011.7
2017-Dec-09 20:59N 44°03' W 068°51'511.0
2017-Dec-09 20:30N 44°05' W 068°58'611.1
2017-Dec-09 19:59N 44°06' W 069°05'1 1.5
2017-Dec-09 19:27N 44°06' W 069°06'0 0.1
2017-Dec-09 19:00N 44°06' W 069°06'0 0.0
2017-Dec-09 15:14N 44°06' W 069°06'0 1.2
2017-Dec-09 15:00N 44°06' W 069°06'510.8
2017-Dec-09 14:30N 44°05' W 068°59'611.0
2017-Dec-09 14:00N 44°03' W 068°52'1 1.4
2017-Dec-09 13:11N 44°02' W 068°50'2 9.4
2017-Dec-09 13:00N 44°03' W 068°53'611.2
2017-Dec-09 12:30N 44°06' W 068°60'5 8.6
2017-Dec-09 11:55N 44°06' W 069°06'0 0.0
2017-Dec-08 22:47N 44°06' W 069°06'3 8.8
2017-Dec-08 22:30N 44°06' W 069°03'510.6
2017-Dec-08 22:00N 44°05' W 068°56'4 3.7
2017-Dec-08 20:53N 44°02' W 068°51'411.5
2017-Dec-08 20:30N 44°05' W 068°56'611.6
2017-Dec-08 20:00N 44°06' W 069°04'2 2.7
2017-Dec-08 19:17N 44°06' W 069°06'2 7.6
2017-Dec-08 19:00N 44°06' W 069°03'611.0
2017-Dec-08 18:29N 44°05' W 068°56'5 2.6
2017-Dec-08 16:43N 44°02' W 068°50'2 9.7
2017-Dec-08 16:30N 44°03' W 068°53'510.5
2017-Dec-08 16:00N 44°05' W 068°60'5 9.6
2017-Dec-08 15:29N 44°06' W 069°06'0 0.7
2017-Dec-08 15:00N 44°06' W 069°06'510.5
2017-Dec-08 14:30N 44°06' W 068°59'610.9
2017-Dec-08 14:00N 44°03' W 068°52'1 1.7
2017-Dec-08 13:12N 44°02' W 068°50'2 9.3
2017-Dec-08 13:00N 44°03' W 068°53'611.0
2017-Dec-08 12:30N 44°06' W 068°60'5 8.1
2017-Dec-08 11:54N 44°06' W 069°06'0 0.1
2017-Dec-08 11:28N 44°06' W 069°06'0 0.0
2017-Dec-07 22:52N 44°06' W 069°06'3 7.5
2017-Dec-07 22:29N 44°06' W 069°03'510.5
2017-Dec-07 21:59N 44°05' W 068°56'4 3.8
2017-Dec-07 20:57N 44°02' W 068°51'511.5
2017-Dec-07 20:30N 44°05' W 068°57'611.5
2017-Dec-07 20:00N 44°06' W 069°05'1 2.1
2017-Dec-07 19:24N 44°06' W 069°06'2 6.1
2017-Dec-07 19:00N 44°06' W 069°03'510.7
2017-Dec-07 18:30N 44°05' W 068°56'4 2.5
2017-Dec-07 16:42N 44°02' W 068°51'210.5
2017-Dec-07 16:28N 44°04' W 068°53'510.8
2017-Dec-07 16:00N 44°06' W 068°60'5 5.0
2017-Dec-07 15:02N 44°06' W 069°06'0 1.2
2017-Dec-07 15:00N 44°06' W 069°06'5 9.8
2017-Dec-07 14:29N 44°06' W 068°60'511.1
2017-Dec-07 14:00N 44°03' W 068°53'2 2.5
2017-Dec-07 13:15N 44°03' W 068°50'2 8.0
2017-Dec-07 13:00N 44°03' W 068°53'510.8
2017-Dec-07 12:30N 44°06' W 068°60'5 8.4
2017-Dec-07 11:56N 44°06' W 069°06'0 0.0
2017-Dec-06 22:44N 44°06' W 069°06'2 7.6
2017-Dec-06 22:30N 44°06' W 069°04'611.1
2017-Dec-06 22:00N 44°05' W 068°56'5 4.7
2017-Dec-06 20:56N 44°03' W 068°50'  
2017-Dec-03 22:42N 44°06' W 069°06'2 8.6
2017-Dec-03 22:30N 44°06' W 069°04'610.6
2017-Dec-03 21:58N 44°05' W 068°56'4 3.0
2017-Dec-03 20:48N 44°03' W 068°52'310.3
2017-Dec-03 20:30N 44°05' W 068°56'611.3
2017-Dec-03 20:00N 44°06' W 069°04'2 3.0
2017-Dec-03 19:16N 44°06' W 069°06'2 7.5
2017-Dec-03 19:00N 44°06' W 069°04'611.0
2017-Dec-03 18:29N 44°05' W 068°56'5 2.5
2017-Dec-03 16:37N 44°02' W 068°51'111.1
2017-Dec-03 16:30N 44°03' W 068°52'611.4
2017-Dec-03 16:01N 44°05' W 068°59'5 7.9
2017-Dec-03 15:21N 44°06' W 069°06'0 0.1
2017-Dec-03 15:00N 44°06' W 069°06'5 9.6
2017-Dec-03 14:30N 44°06' W 069°00'510.8
2017-Dec-03 14:00N 44°04' W 068°53'2 2.8
2017-Dec-03 13:14N 44°02' W 068°50'2 9.9
2017-Dec-03 13:00N 44°04' W 068°53'510.5
2017-Dec-03 12:30N 44°06' W 068°60'5 9.4
2017-Dec-03 12:00N 44°06' W 069°06'0 0.1
2017-Dec-03 11:30N 44°06' W 069°06'0 0.0
2017-Dec-02 22:42N 44°06' W 069°06'1 7.2
2017-Dec-02 22:29N 44°06' W 069°05'611.4
2017-Dec-02 22:00N 44°05' W 068°57'4 4.0
2017-Dec-02 20:54N 44°03' W 068°52'410.3
2017-Dec-02 20:29N 44°05' W 068°57'611.3
2017-Dec-02 19:58N 44°06' W 069°04'1 2.0
2017-Dec-02 19:14N 44°06' W 069°06'2 7.5
2017-Dec-02 18:59N 44°06' W 069°04'511.2
2017-Dec-02 18:30N 44°05' W 068°56'2 0.7
2017-Dec-02 16:20N 44°04' W 068°55'411.7
2017-Dec-02 16:01N 44°05' W 068°59'5 4.8
2017-Dec-02 14:58N 44°06' W 069°06'510.1
2017-Dec-02 14:30N 44°06' W 068°60'610.9
2017-Dec-02 13:59N 44°03' W 068°53'1 1.1
2017-Dec-02 13:10N 44°03' W 068°52'210.8
2017-Dec-02 12:57N 44°04' W 068°54'510.8
2017-Dec-02 12:30N 44°06' W 069°00'4 8.8
2017-Dec-02 12:00N 44°06' W 069°06'0 0.1
2017-Dec-02 11:30N 44°06' W 069°06'0 0.0
2017-Dec-01 22:40N 44°06' W 069°06'1 8.4
2017-Dec-01 22:30N 44°06' W 069°05'611.3
2017-Dec-01 21:57N 44°05' W 068°56'3 2.9
2017-Dec-01 20:49N 44°03' W 068°52'310.7
2017-Dec-01 20:30N 44°05' W 068°56'611.2
2017-Dec-01 19:59N 44°06' W 069°04'1 1.8
2017-Dec-01 19:11N 44°06' W 069°06'210.2
2017-Dec-01 19:00N 44°06' W 069°04'610.7
2017-Dec-01 18:24N 44°04' W 068°55'  

Dump ship's entire track history